sensor_id;sensor_type;location;lat;lon;timestamp;P1;durP1;ratioP1;P2;durP2;ratioP2
24102;SDS011;12278;53.058;9.028;2023-06-10T00:00:51;8.95;;;4.03;;
24102;SDS011;12278;53.058;9.028;2023-06-10T00:04:51;9.18;;;4.18;;
24102;SDS011;12278;53.058;9.028;2023-06-10T00:08:53;5.60;;;4.10;;
24102;SDS011;12278;53.058;9.028;2023-06-10T00:12:55;6.20;;;3.72;;
24102;SDS011;12278;53.058;9.028;2023-06-10T00:16:56;7.68;;;3.75;;
24102;SDS011;12278;53.058;9.028;2023-06-10T00:20:57;6.03;;;3.88;;
24102;SDS011;12278;53.058;9.028;2023-06-10T00:25:04;6.80;;;3.70;;
24102;SDS011;12278;53.058;9.028;2023-06-10T00:29:07;7.65;;;4.63;;
24102;SDS011;12278;53.058;9.028;2023-06-10T00:33:08;9.10;;;4.05;;
24102;SDS011;12278;53.058;9.028;2023-06-10T00:37:09;7.20;;;4.57;;
24102;SDS011;12278;53.058;9.028;2023-06-10T00:41:10;9.00;;;4.05;;
24102;SDS011;12278;53.058;9.028;2023-06-10T00:45:10;8.82;;;4.40;;
24102;SDS011;12278;53.058;9.028;2023-06-10T00:49:11;6.55;;;3.88;;
24102;SDS011;12278;53.058;9.028;2023-06-10T00:53:12;6.15;;;3.65;;
24102;SDS011;12278;53.058;9.028;2023-06-10T00:57:13;8.23;;;4.20;;
24102;SDS011;12278;53.058;9.028;2023-06-10T01:01:14;4.57;;;3.60;;
24102;SDS011;12278;53.058;9.028;2023-06-10T01:05:14;7.10;;;3.85;;
24102;SDS011;12278;53.058;9.028;2023-06-10T01:13:25;5.20;;;4.53;;
24102;SDS011;12278;53.058;9.028;2023-06-10T01:17:29;7.78;;;4.47;;
24102;SDS011;12278;53.058;9.028;2023-06-10T01:21:30;6.38;;;3.90;;
24102;SDS011;12278;53.058;9.028;2023-06-10T01:25:31;5.43;;;3.75;;
24102;SDS011;12278;53.058;9.028;2023-06-10T01:29:43;6.13;;;4.10;;
24102;SDS011;12278;53.058;9.028;2023-06-10T01:33:46;9.40;;;3.95;;
24102;SDS011;12278;53.058;9.028;2023-06-10T01:37:51;7.10;;;4.15;;
24102;SDS011;12278;53.058;9.028;2023-06-10T01:41:54;8.15;;;4.28;;
24102;SDS011;12278;53.058;9.028;2023-06-10T01:45:56;4.32;;;3.92;;
24102;SDS011;12278;53.058;9.028;2023-06-10T01:49:56;6.97;;;3.83;;
24102;SDS011;12278;53.058;9.028;2023-06-10T01:53:57;7.70;;;4.60;;
24102;SDS011;12278;53.058;9.028;2023-06-10T01:57:58;7.22;;;4.38;;
24102;SDS011;12278;53.058;9.028;2023-06-10T02:01:58;8.75;;;3.75;;
24102;SDS011;12278;53.058;9.028;2023-06-10T02:05:59;7.22;;;3.65;;
24102;SDS011;12278;53.058;9.028;2023-06-10T02:09:59;6.47;;;3.83;;
24102;SDS011;12278;53.058;9.028;2023-06-10T02:14:00;5.13;;;3.42;;
24102;SDS011;12278;53.058;9.028;2023-06-10T02:18:01;5.63;;;3.83;;
24102;SDS011;12278;53.058;9.028;2023-06-10T02:22:02;7.88;;;4.32;;
24102;SDS011;12278;53.058;9.028;2023-06-10T02:26:03;9.80;;;4.18;;
24102;SDS011;12278;53.058;9.028;2023-06-10T02:30:04;8.50;;;4.63;;
24102;SDS011;12278;53.058;9.028;2023-06-10T02:34:05;4.25;;;3.70;;
24102;SDS011;12278;53.058;9.028;2023-06-10T02:38:05;7.57;;;3.80;;
24102;SDS011;12278;53.058;9.028;2023-06-10T02:42:06;7.38;;;4.35;;
24102;SDS011;12278;53.058;9.028;2023-06-10T02:46:07;13.38;;;4.15;;
24102;SDS011;12278;53.058;9.028;2023-06-10T02:50:09;4.57;;;3.53;;
24102;SDS011;12278;53.058;9.028;2023-06-10T02:54:09;11.45;;;4.78;;
24102;SDS011;12278;53.058;9.028;2023-06-10T02:58:10;6.80;;;4.47;;
24102;SDS011;12278;53.058;9.028;2023-06-10T03:02:11;10.35;;;5.32;;
24102;SDS011;12278;53.058;9.028;2023-06-10T03:06:12;7.30;;;5.07;;
24102;SDS011;12278;53.058;9.028;2023-06-10T03:10:15;9.45;;;5.13;;
24102;SDS011;12278;53.058;9.028;2023-06-10T03:14:16;9.13;;;5.38;;
24102;SDS011;12278;53.058;9.028;2023-06-10T03:18:16;9.38;;;4.85;;
24102;SDS011;12278;53.058;9.028;2023-06-10T03:22:17;8.27;;;4.93;;
24102;SDS011;12278;53.058;9.028;2023-06-10T03:26:18;9.15;;;5.55;;
24102;SDS011;12278;53.058;9.028;2023-06-10T03:30:21;9.50;;;6.22;;
24102;SDS011;12278;53.058;9.028;2023-06-10T03:34:22;10.60;;;5.43;;
24102;SDS011;12278;53.058;9.028;2023-06-10T03:38:23;6.28;;;4.93;;
24102;SDS011;12278;53.058;9.028;2023-06-10T03:42:24;7.35;;;5.20;;
24102;SDS011;12278;53.058;9.028;2023-06-10T03:46:24;8.40;;;5.40;;
24102;SDS011;12278;53.058;9.028;2023-06-10T03:50:25;8.77;;;4.65;;
24102;SDS011;12278;53.058;9.028;2023-06-10T03:54:26;8.25;;;5.05;;
24102;SDS011;12278;53.058;9.028;2023-06-10T03:58:26;7.43;;;4.45;;
24102;SDS011;12278;53.058;9.028;2023-06-10T04:02:27;6.43;;;3.90;;
24102;SDS011;12278;53.058;9.028;2023-06-10T04:06:28;6.65;;;4.60;;
24102;SDS011;12278;53.058;9.028;2023-06-10T04:10:29;6.35;;;4.05;;
24102;SDS011;12278;53.058;9.028;2023-06-10T04:18:37;8.40;;;4.60;;
24102;SDS011;12278;53.058;9.028;2023-06-10T04:22:38;9.63;;;5.18;;
24102;SDS011;12278;53.058;9.028;2023-06-10T04:26:38;8.18;;;4.85;;
24102;SDS011;12278;53.058;9.028;2023-06-10T04:30:39;5.80;;;4.35;;
24102;SDS011;12278;53.058;9.028;2023-06-10T04:34:39;6.28;;;4.05;;
24102;SDS011;12278;53.058;9.028;2023-06-10T04:38:42;8.07;;;4.68;;
24102;SDS011;12278;53.058;9.028;2023-06-10T04:42:43;9.80;;;6.05;;
24102;SDS011;12278;53.058;9.028;2023-06-10T04:46:44;6.20;;;4.85;;
24102;SDS011;12278;53.058;9.028;2023-06-10T04:50:45;8.55;;;4.60;;
24102;SDS011;12278;53.058;9.028;2023-06-10T04:54:46;6.80;;;4.43;;
24102;SDS011;12278;53.058;9.028;2023-06-10T04:58:46;6.28;;;4.75;;
24102;SDS011;12278;53.058;9.028;2023-06-10T05:02:48;8.27;;;4.28;;
24102;SDS011;12278;53.058;9.028;2023-06-10T05:06:49;7.25;;;4.13;;
24102;SDS011;12278;53.058;9.028;2023-06-10T05:10:50;8.68;;;4.45;;
24102;SDS011;12278;53.058;9.028;2023-06-10T05:14:50;5.95;;;4.20;;
24102;SDS011;12278;53.058;9.028;2023-06-10T05:18:51;6.57;;;4.47;;
24102;SDS011;12278;53.058;9.028;2023-06-10T05:22:52;8.45;;;4.88;;
24102;SDS011;12278;53.058;9.028;2023-06-10T05:26:52;7.00;;;4.43;;
24102;SDS011;12278;53.058;9.028;2023-06-10T05:30:53;9.50;;;5.47;;
24102;SDS011;12278;53.058;9.028;2023-06-10T05:34:54;9.52;;;4.13;;
24102;SDS011;12278;53.058;9.028;2023-06-10T05:38:54;7.10;;;4.80;;
24102;SDS011;12278;53.058;9.028;2023-06-10T05:42:55;6.78;;;5.00;;
24102;SDS011;12278;53.058;9.028;2023-06-10T05:46:56;7.45;;;4.85;;
24102;SDS011;12278;53.058;9.028;2023-06-10T05:50:57;9.35;;;4.95;;
24102;SDS011;12278;53.058;9.028;2023-06-10T05:54:58;8.57;;;4.10;;
24102;SDS011;12278;53.058;9.028;2023-06-10T05:58:59;7.97;;;5.20;;
24102;SDS011;12278;53.058;9.028;2023-06-10T06:03:00;6.70;;;4.80;;
24102;SDS011;12278;53.058;9.028;2023-06-10T06:07:00;6.75;;;4.70;;
24102;SDS011;12278;53.058;9.028;2023-06-10T06:11:01;7.13;;;4.43;;
24102;SDS011;12278;53.058;9.028;2023-06-10T06:15:02;7.05;;;5.20;;
24102;SDS011;12278;53.058;9.028;2023-06-10T06:19:03;9.98;;;4.95;;
24102;SDS011;12278;53.058;9.028;2023-06-10T06:23:05;8.70;;;5.00;;
24102;SDS011;12278;53.058;9.028;2023-06-10T06:27:08;6.22;;;4.20;;
24102;SDS011;12278;53.058;9.028;2023-06-10T06:31:10;5.60;;;3.78;;
24102;SDS011;12278;53.058;9.028;2023-06-10T07:47:32;6.85;;;3.80;;
24102;SDS011;12278;53.058;9.028;2023-06-10T07:51:34;5.25;;;3.50;;
24102;SDS011;12278;53.058;9.028;2023-06-10T07:55:36;7.78;;;3.90;;
24102;SDS011;12278;53.058;9.028;2023-06-10T07:59:36;5.28;;;3.75;;
24102;SDS011;12278;53.058;9.028;2023-06-10T08:03:37;6.97;;;4.20;;
24102;SDS011;12278;53.058;9.028;2023-06-10T08:07:41;7.60;;;4.88;;
24102;SDS011;12278;53.058;9.028;2023-06-10T08:11:42;3.42;;;2.80;;
24102;SDS011;12278;53.058;9.028;2023-06-10T08:15:43;4.85;;;3.60;;
24102;SDS011;12278;53.058;9.028;2023-06-10T08:19:43;6.25;;;3.65;;
24102;SDS011;12278;53.058;9.028;2023-06-10T08:23:44;5.07;;;3.08;;
24102;SDS011;12278;53.058;9.028;2023-06-10T08:27:55;6.18;;;3.92;;
24102;SDS011;12278;53.058;9.028;2023-06-10T08:31:56;5.13;;;3.20;;
24102;SDS011;12278;53.058;9.028;2023-06-10T08:35:57;4.72;;;3.58;;
24102;SDS011;12278;53.058;9.028;2023-06-10T08:39:57;6.05;;;3.30;;
24102;SDS011;12278;53.058;9.028;2023-06-10T08:48:22;6.65;;;3.35;;
24102;SDS011;12278;53.058;9.028;2023-06-10T08:52:23;7.68;;;4.05;;
24102;SDS011;12278;53.058;9.028;2023-06-10T08:56:26;7.38;;;3.45;;
24102;SDS011;12278;53.058;9.028;2023-06-10T09:00:28;3.83;;;3.33;;
24102;SDS011;12278;53.058;9.028;2023-06-10T09:04:32;5.07;;;3.70;;
24102;SDS011;12278;53.058;9.028;2023-06-10T09:08:34;5.72;;;3.67;;
24102;SDS011;12278;53.058;9.028;2023-06-10T09:12:37;6.80;;;3.42;;
24102;SDS011;12278;53.058;9.028;2023-06-10T09:16:41;4.00;;;3.58;;
24102;SDS011;12278;53.058;9.028;2023-06-10T09:20:43;4.88;;;3.25;;
24102;SDS011;12278;53.058;9.028;2023-06-10T09:24:46;5.00;;;3.45;;
24102;SDS011;12278;53.058;9.028;2023-06-10T09:28:49;7.95;;;4.20;;
24102;SDS011;12278;53.058;9.028;2023-06-10T09:32:50;7.00;;;3.33;;
24102;SDS011;12278;53.058;9.028;2023-06-10T09:36:51;5.10;;;3.03;;
24102;SDS011;12278;53.058;9.028;2023-06-10T09:40:55;3.88;;;3.00;;
24102;SDS011;12278;53.058;9.028;2023-06-10T09:44:56;3.30;;;3.00;;
24102;SDS011;12278;53.058;9.028;2023-06-10T09:48:57;5.53;;;3.22;;
24102;SDS011;12278;53.058;9.028;2023-06-10T09:52:58;2.88;;;2.58;;
24102;SDS011;12278;53.058;9.028;2023-06-10T09:56:59;5.35;;;3.45;;
24102;SDS011;12278;53.058;9.028;2023-06-10T10:01:09;3.67;;;2.85;;
24102;SDS011;12278;53.058;9.028;2023-06-10T10:05:12;6.90;;;3.35;;
24102;SDS011;12278;53.058;9.028;2023-06-10T10:09:14;5.13;;;2.97;;
24102;SDS011;12278;53.058;9.028;2023-06-10T10:13:15;6.63;;;3.45;;
24102;SDS011;12278;53.058;9.028;2023-06-10T10:17:16;4.63;;;3.33;;
24102;SDS011;12278;53.058;9.028;2023-06-10T10:21:18;6.18;;;3.22;;
24102;SDS011;12278;53.058;9.028;2023-06-10T10:25:24;6.43;;;2.67;;
24102;SDS011;12278;53.058;9.028;2023-06-10T10:29:33;5.70;;;3.15;;
24102;SDS011;12278;53.058;9.028;2023-06-10T10:34:12;5.78;;;3.13;;
24102;SDS011;12278;53.058;9.028;2023-06-10T10:38:12;6.85;;;2.90;;
24102;SDS011;12278;53.058;9.028;2023-06-10T10:42:12;4.05;;;2.63;;
24102;SDS011;12278;53.058;9.028;2023-06-10T10:46:15;4.30;;;2.53;;
24102;SDS011;12278;53.058;9.028;2023-06-10T10:50:20;5.28;;;3.17;;
24102;SDS011;12278;53.058;9.028;2023-06-10T10:54:28;3.38;;;2.83;;
24102;SDS011;12278;53.058;9.028;2023-06-10T10:58:32;4.38;;;2.70;;
24102;SDS011;12278;53.058;9.028;2023-06-10T11:02:41;5.53;;;2.92;;
24102;SDS011;12278;53.058;9.028;2023-06-10T11:06:53;8.50;;;3.10;;
24102;SDS011;12278;53.058;9.028;2023-06-10T11:10:54;6.25;;;2.85;;
24102;SDS011;12278;53.058;9.028;2023-06-10T11:14:55;4.70;;;2.78;;
24102;SDS011;12278;53.058;9.028;2023-06-10T11:18:56;3.88;;;2.65;;
24102;SDS011;12278;53.058;9.028;2023-06-10T11:23:01;3.03;;;2.35;;
24102;SDS011;12278;53.058;9.028;2023-06-10T11:27:14;7.97;;;3.15;;
24102;SDS011;12278;53.058;9.028;2023-06-10T11:31:23;5.22;;;2.90;;
24102;SDS011;12278;53.058;9.028;2023-06-10T11:35:24;4.55;;;2.60;;
24102;SDS011;12278;53.058;9.028;2023-06-10T11:39:26;6.10;;;3.13;;
24102;SDS011;12278;53.058;9.028;2023-06-10T11:43:27;4.65;;;2.70;;
24102;SDS011;12278;53.058;9.028;2023-06-10T11:47:29;3.60;;;2.88;;
24102;SDS011;12278;53.058;9.028;2023-06-10T11:51:39;4.93;;;2.55;;
24102;SDS011;12278;53.058;9.028;2023-06-10T11:55:55;3.00;;;2.40;;
24102;SDS011;12278;53.058;9.028;2023-06-10T11:59:56;4.80;;;2.67;;
24102;SDS011;12278;53.058;9.028;2023-06-10T12:03:57;2.85;;;2.33;;
24102;SDS011;12278;53.058;9.028;2023-06-10T12:08:08;6.28;;;2.70;;
24102;SDS011;12278;53.058;9.028;2023-06-10T12:12:09;3.25;;;2.42;;
24102;SDS011;12278;53.058;9.028;2023-06-10T12:16:12;5.38;;;3.00;;
24102;SDS011;12278;53.058;9.028;2023-06-10T12:20:28;7.47;;;2.60;;
24102;SDS011;12278;53.058;9.028;2023-06-10T12:24:31;4.28;;;2.42;;
24102;SDS011;12278;53.058;9.028;2023-06-10T12:28:32;4.35;;;2.30;;
24102;SDS011;12278;53.058;9.028;2023-06-10T12:32:36;5.80;;;2.58;;
24102;SDS011;12278;53.058;9.028;2023-06-10T12:36:47;3.83;;;2.42;;
24102;SDS011;12278;53.058;9.028;2023-06-10T12:40:51;3.15;;;2.40;;
24102;SDS011;12278;53.058;9.028;2023-06-10T12:44:55;4.40;;;2.45;;
24102;SDS011;12278;53.058;9.028;2023-06-10T12:48:56;4.20;;;2.63;;
24102;SDS011;12278;53.058;9.028;2023-06-10T12:52:58;5.68;;;2.60;;
24102;SDS011;12278;53.058;9.028;2023-06-10T12:56:59;4.47;;;3.00;;
24102;SDS011;12278;53.058;9.028;2023-06-10T13:01:00;5.10;;;2.65;;
24102;SDS011;12278;53.058;9.028;2023-06-10T13:05:01;5.28;;;2.67;;
24102;SDS011;12278;53.058;9.028;2023-06-10T13:09:03;5.57;;;2.83;;
24102;SDS011;12278;53.058;9.028;2023-06-10T13:13:03;6.18;;;3.53;;
24102;SDS011;12278;53.058;9.028;2023-06-10T13:17:06;3.50;;;2.63;;
24102;SDS011;12278;53.058;9.028;2023-06-10T13:21:06;3.25;;;2.90;;
24102;SDS011;12278;53.058;9.028;2023-06-10T13:25:07;6.95;;;4.03;;
24102;SDS011;12278;53.058;9.028;2023-06-10T13:29:08;3.63;;;2.65;;
24102;SDS011;12278;53.058;9.028;2023-06-10T13:33:13;3.72;;;3.20;;
24102;SDS011;12278;53.058;9.028;2023-06-10T13:37:14;3.75;;;3.00;;
24102;SDS011;12278;53.058;9.028;2023-06-10T13:41:18;5.28;;;3.38;;
24102;SDS011;12278;53.058;9.028;2023-06-10T13:45:19;4.10;;;3.28;;
24102;SDS011;12278;53.058;9.028;2023-06-10T13:49:20;5.07;;;3.10;;
24102;SDS011;12278;53.058;9.028;2023-06-10T13:53:21;4.00;;;2.83;;
24102;SDS011;12278;53.058;9.028;2023-06-10T13:57:21;4.15;;;2.85;;
24102;SDS011;12278;53.058;9.028;2023-06-10T14:01:22;3.55;;;3.08;;
24102;SDS011;12278;53.058;9.028;2023-06-10T14:05:22;4.30;;;3.60;;
24102;SDS011;12278;53.058;9.028;2023-06-10T14:09:25;8.07;;;3.90;;
24102;SDS011;12278;53.058;9.028;2023-06-10T14:13:25;3.72;;;3.38;;
24102;SDS011;12278;53.058;9.028;2023-06-10T14:17:26;8.70;;;4.15;;
24102;SDS011;12278;53.058;9.028;2023-06-10T14:21:27;4.20;;;3.42;;
24102;SDS011;12278;53.058;9.028;2023-06-10T14:25:27;4.88;;;3.65;;
24102;SDS011;12278;53.058;9.028;2023-06-10T14:29:28;6.55;;;3.67;;
24102;SDS011;12278;53.058;9.028;2023-06-10T14:33:29;5.87;;;4.07;;
24102;SDS011;12278;53.058;9.028;2023-06-10T14:37:31;5.32;;;3.70;;
24102;SDS011;12278;53.058;9.028;2023-06-10T14:41:31;9.35;;;4.53;;
24102;SDS011;12278;53.058;9.028;2023-06-10T14:45:32;6.43;;;4.20;;
24102;SDS011;12278;53.058;9.028;2023-06-10T14:49:33;8.57;;;4.07;;
24102;SDS011;12278;53.058;9.028;2023-06-10T14:53:33;9.20;;;4.25;;
24102;SDS011;12278;53.058;9.028;2023-06-10T14:57:35;14.13;;;5.22;;
24102;SDS011;12278;53.058;9.028;2023-06-10T15:01:36;5.60;;;3.40;;
24102;SDS011;12278;53.058;9.028;2023-06-10T15:05:37;5.38;;;4.00;;
24102;SDS011;12278;53.058;9.028;2023-06-10T15:09:37;5.07;;;4.05;;
24102;SDS011;12278;53.058;9.028;2023-06-10T15:13:38;4.68;;;4.15;;
24102;SDS011;12278;53.058;9.028;2023-06-10T15:17:39;5.70;;;4.35;;
24102;SDS011;12278;53.058;9.028;2023-06-10T15:21:39;12.55;;;4.38;;
24102;SDS011;12278;53.058;9.028;2023-06-10T15:25:40;6.63;;;4.72;;
24102;SDS011;12278;53.058;9.028;2023-06-10T15:29:41;6.05;;;4.43;;
24102;SDS011;12278;53.058;9.028;2023-06-10T15:33:42;7.53;;;4.82;;
24102;SDS011;12278;53.058;9.028;2023-06-10T15:37:43;7.18;;;4.60;;
24102;SDS011;12278;53.058;9.028;2023-06-10T15:41:43;5.50;;;4.63;;
24102;SDS011;12278;53.058;9.028;2023-06-10T15:45:44;8.32;;;5.07;;
24102;SDS011;12278;53.058;9.028;2023-06-10T15:49:45;5.53;;;5.00;;
24102;SDS011;12278;53.058;9.028;2023-06-10T15:53:46;7.13;;;5.03;;
24102;SDS011;12278;53.058;9.028;2023-06-10T15:57:47;5.60;;;4.45;;
24102;SDS011;12278;53.058;9.028;2023-06-10T16:01:47;4.85;;;4.45;;
24102;SDS011;12278;53.058;9.028;2023-06-10T16:05:48;10.43;;;6.65;;
24102;SDS011;12278;53.058;9.028;2023-06-10T16:09:49;7.88;;;5.25;;
24102;SDS011;12278;53.058;9.028;2023-06-10T16:13:50;7.80;;;5.70;;
24102;SDS011;12278;53.058;9.028;2023-06-10T16:17:50;7.18;;;5.47;;
24102;SDS011;12278;53.058;9.028;2023-06-10T16:21:51;6.78;;;5.22;;
24102;SDS011;12278;53.058;9.028;2023-06-10T16:25:52;7.43;;;4.82;;
24102;SDS011;12278;53.058;9.028;2023-06-10T16:29:52;6.53;;;5.13;;
24102;SDS011;12278;53.058;9.028;2023-06-10T16:33:53;6.25;;;4.82;;
24102;SDS011;12278;53.058;9.028;2023-06-10T16:37:54;7.55;;;6.05;;
24102;SDS011;12278;53.058;9.028;2023-06-10T16:41:55;7.38;;;5.65;;
24102;SDS011;12278;53.058;9.028;2023-06-10T16:45:56;5.82;;;5.10;;
24102;SDS011;12278;53.058;9.028;2023-06-10T16:49:57;6.70;;;5.55;;
24102;SDS011;12278;53.058;9.028;2023-06-10T16:53:57;6.75;;;6.20;;
24102;SDS011;12278;53.058;9.028;2023-06-10T16:57:58;7.03;;;6.20;;
24102;SDS011;12278;53.058;9.028;2023-06-10T17:01:59;14.18;;;7.55;;
24102;SDS011;12278;53.058;9.028;2023-06-10T17:06:01;7.72;;;5.80;;
24102;SDS011;12278;53.058;9.028;2023-06-10T17:10:02;7.20;;;6.50;;
24102;SDS011;12278;53.058;9.028;2023-06-10T17:14:03;6.72;;;6.13;;
24102;SDS011;12278;53.058;9.028;2023-06-10T17:18:04;7.57;;;6.28;;
24102;SDS011;12278;53.058;9.028;2023-06-10T17:22:05;6.63;;;5.47;;
24102;SDS011;12278;53.058;9.028;2023-06-10T17:26:05;7.38;;;6.60;;
24102;SDS011;12278;53.058;9.028;2023-06-10T17:30:08;8.75;;;7.15;;
24102;SDS011;12278;53.058;9.028;2023-06-10T17:34:09;6.57;;;5.90;;
24102;SDS011;12278;53.058;9.028;2023-06-10T17:38:09;7.75;;;5.63;;
24102;SDS011;12278;53.058;9.028;2023-06-10T17:42:10;8.23;;;6.10;;
24102;SDS011;12278;53.058;9.028;2023-06-10T17:46:11;7.63;;;6.65;;
24102;SDS011;12278;53.058;9.028;2023-06-10T17:50:12;11.25;;;6.07;;
24102;SDS011;12278;53.058;9.028;2023-06-10T17:54:13;6.78;;;6.10;;
24102;SDS011;12278;53.058;9.028;2023-06-10T17:58:13;10.27;;;5.93;;
24102;SDS011;12278;53.058;9.028;2023-06-10T18:02:14;7.40;;;5.95;;
24102;SDS011;12278;53.058;9.028;2023-06-10T18:06:15;6.82;;;5.60;;
24102;SDS011;12278;53.058;9.028;2023-06-10T18:10:15;8.75;;;5.45;;
24102;SDS011;12278;53.058;9.028;2023-06-10T18:14:16;10.32;;;5.10;;
24102;SDS011;12278;53.058;9.028;2023-06-10T18:18:17;6.03;;;3.97;;
24102;SDS011;12278;53.058;9.028;2023-06-10T18:22:17;6.70;;;3.67;;
24102;SDS011;12278;53.058;9.028;2023-06-10T18:26:18;6.45;;;4.22;;
24102;SDS011;12278;53.058;9.028;2023-06-10T18:30:18;6.78;;;4.15;;
24102;SDS011;12278;53.058;9.028;2023-06-10T18:34:20;6.20;;;3.70;;
24102;SDS011;12278;53.058;9.028;2023-06-10T18:38:20;8.18;;;4.35;;
24102;SDS011;12278;53.058;9.028;2023-06-10T18:42:24;4.07;;;3.65;;
24102;SDS011;12278;53.058;9.028;2023-06-10T18:46:25;5.80;;;3.97;;
24102;SDS011;12278;53.058;9.028;2023-06-10T18:50:26;11.48;;;4.55;;
24102;SDS011;12278;53.058;9.028;2023-06-10T18:54:27;7.22;;;3.95;;
24102;SDS011;12278;53.058;9.028;2023-06-10T18:58:30;7.43;;;4.15;;
24102;SDS011;12278;53.058;9.028;2023-06-10T19:02:34;7.15;;;4.40;;
24102;SDS011;12278;53.058;9.028;2023-06-10T19:06:35;5.97;;;4.15;;
24102;SDS011;12278;53.058;9.028;2023-06-10T19:10:37;5.72;;;4.38;;
24102;SDS011;12278;53.058;9.028;2023-06-10T19:14:38;5.15;;;4.63;;
24102;SDS011;12278;53.058;9.028;2023-06-10T19:18:40;8.27;;;5.60;;
24102;SDS011;12278;53.058;9.028;2023-06-10T19:22:40;8.60;;;4.63;;
24102;SDS011;12278;53.058;9.028;2023-06-10T19:26:42;5.60;;;3.50;;
24102;SDS011;12278;53.058;9.028;2023-06-10T19:30:43;5.22;;;4.72;;
24102;SDS011;12278;53.058;9.028;2023-06-10T19:34:43;5.18;;;4.68;;
24102;SDS011;12278;53.058;9.028;2023-06-10T19:38:45;8.43;;;5.53;;
24102;SDS011;12278;53.058;9.028;2023-06-10T19:42:46;6.30;;;5.10;;
24102;SDS011;12278;53.058;9.028;2023-06-10T19:46:47;5.70;;;5.20;;
24102;SDS011;12278;53.058;9.028;2023-06-10T19:50:47;6.45;;;5.25;;
24102;SDS011;12278;53.058;9.028;2023-06-10T19:54:48;5.72;;;5.15;;
24102;SDS011;12278;53.058;9.028;2023-06-10T19:58:49;7.63;;;5.60;;
24102;SDS011;12278;53.058;9.028;2023-06-10T20:02:49;5.95;;;5.40;;
24102;SDS011;12278;53.058;9.028;2023-06-10T20:06:52;7.03;;;5.40;;
24102;SDS011;12278;53.058;9.028;2023-06-10T20:10:53;6.03;;;4.90;;
24102;SDS011;12278;53.058;9.028;2023-06-10T20:14:53;6.22;;;5.63;;
24102;SDS011;12278;53.058;9.028;2023-06-10T20:18:54;6.07;;;5.57;;
24102;SDS011;12278;53.058;9.028;2023-06-10T20:22:55;12.02;;;5.68;;
24102;SDS011;12278;53.058;9.028;2023-06-10T20:26:56;5.93;;;5.32;;
24102;SDS011;12278;53.058;9.028;2023-06-10T20:30:57;6.13;;;5.57;;
24102;SDS011;12278;53.058;9.028;2023-06-10T20:34:58;7.45;;;5.97;;
24102;SDS011;12278;53.058;9.028;2023-06-10T20:38:58;6.45;;;5.88;;
24102;SDS011;12278;53.058;9.028;2023-06-10T20:42:59;6.63;;;6.03;;
24102;SDS011;12278;53.058;9.028;2023-06-10T20:47:00;8.35;;;5.78;;
24102;SDS011;12278;53.058;9.028;2023-06-10T20:51:00;6.30;;;5.70;;
24102;SDS011;12278;53.058;9.028;2023-06-10T20:55:01;6.47;;;5.88;;
24102;SDS011;12278;53.058;9.028;2023-06-10T20:59:02;8.68;;;6.15;;
24102;SDS011;12278;53.058;9.028;2023-06-10T21:03:03;6.10;;;5.53;;
24102;SDS011;12278;53.058;9.028;2023-06-10T21:07:03;7.28;;;5.93;;
24102;SDS011;12278;53.058;9.028;2023-06-10T21:11:04;6.57;;;5.80;;
24102;SDS011;12278;53.058;9.028;2023-06-10T21:15:05;6.65;;;5.95;;
24102;SDS011;12278;53.058;9.028;2023-06-10T21:19:06;6.88;;;6.18;;
24102;SDS011;12278;53.058;9.028;2023-06-10T21:23:07;7.13;;;6.30;;
24102;SDS011;12278;53.058;9.028;2023-06-10T21:27:08;6.75;;;6.20;;
24102;SDS011;12278;53.058;9.028;2023-06-10T21:31:08;6.45;;;5.70;;
24102;SDS011;12278;53.058;9.028;2023-06-10T21:35:13;7.38;;;6.70;;
24102;SDS011;12278;53.058;9.028;2023-06-10T21:39:14;9.05;;;5.90;;
24102;SDS011;12278;53.058;9.028;2023-06-10T21:43:15;6.72;;;6.13;;
24102;SDS011;12278;53.058;9.028;2023-06-10T21:47:16;6.65;;;6.00;;
24102;SDS011;12278;53.058;9.028;2023-06-10T21:51:16;6.57;;;5.97;;
24102;SDS011;12278;53.058;9.028;2023-06-10T21:55:17;5.72;;;5.28;;
24102;SDS011;12278;53.058;9.028;2023-06-10T21:59:18;6.50;;;5.85;;
24102;SDS011;12278;53.058;9.028;2023-06-10T22:03:21;5.93;;;5.53;;
24102;SDS011;12278;53.058;9.028;2023-06-10T22:07:22;7.18;;;6.20;;
24102;SDS011;12278;53.058;9.028;2023-06-10T22:11:24;6.82;;;6.03;;
24102;SDS011;12278;53.058;9.028;2023-06-10T22:15:25;6.85;;;5.78;;
24102;SDS011;12278;53.058;9.028;2023-06-10T22:19:26;6.63;;;5.82;;
24102;SDS011;12278;53.058;9.028;2023-06-10T22:23:27;7.75;;;6.30;;
24102;SDS011;12278;53.058;9.028;2023-06-10T22:27:27;5.65;;;5.10;;
24102;SDS011;12278;53.058;9.028;2023-06-10T22:31:28;7.38;;;5.55;;
24102;SDS011;12278;53.058;9.028;2023-06-10T22:35:29;6.63;;;6.03;;
24102;SDS011;12278;53.058;9.028;2023-06-10T22:39:30;7.32;;;6.63;;
24102;SDS011;12278;53.058;9.028;2023-06-10T22:43:30;8.25;;;6.22;;
24102;SDS011;12278;53.058;9.028;2023-06-10T22:47:31;6.47;;;5.57;;
24102;SDS011;12278;53.058;9.028;2023-06-10T22:51:32;7.70;;;5.50;;
24102;SDS011;12278;53.058;9.028;2023-06-10T22:55:32;5.32;;;4.90;;
24102;SDS011;12278;53.058;9.028;2023-06-10T22:59:33;6.18;;;5.00;;
24102;SDS011;12278;53.058;9.028;2023-06-10T23:03:34;6.45;;;5.40;;
24102;SDS011;12278;53.058;9.028;2023-06-10T23:07:34;7.75;;;5.45;;
24102;SDS011;12278;53.058;9.028;2023-06-10T23:11:37;8.43;;;4.80;;
24102;SDS011;12278;53.058;9.028;2023-06-10T23:15:38;7.78;;;5.03;;
24102;SDS011;12278;53.058;9.028;2023-06-10T23:19:39;5.10;;;4.60;;
24102;SDS011;12278;53.058;9.028;2023-06-10T23:23:42;7.38;;;4.53;;
24102;SDS011;12278;53.058;9.028;2023-06-10T23:27:42;5.70;;;5.13;;
24102;SDS011;12278;53.058;9.028;2023-06-10T23:31:43;5.35;;;4.85;;
24102;SDS011;12278;53.058;9.028;2023-06-10T23:35:44;6.50;;;5.00;;
24102;SDS011;12278;53.058;9.028;2023-06-10T23:39:45;6.00;;;5.35;;
24102;SDS011;12278;53.058;9.028;2023-06-10T23:43:55;6.47;;;5.00;;
24102;SDS011;12278;53.058;9.028;2023-06-10T23:47:56;4.80;;;4.30;;
24102;SDS011;12278;53.058;9.028;2023-06-10T23:51:57;6.88;;;5.07;;
24102;SDS011;12278;53.058;9.028;2023-06-10T23:55:57;5.10;;;4.53;;
24102;SDS011;12278;53.058;9.028;2023-06-10T23:59:58;6.30;;;4.25;;
